Kennewick, Washington
Current Conditions -  °F | °C
As of 4:53 AM on Thursday 30 Oct 2014 (Local Time) from KPSC Reporting Station
Light Rain Light Rain  
Wind Chill: 51°   Ceiling: 9000
Heat Index: 51°   Visibility: 10mi
Dew Point: 49°   Wind: 8mph
Humidity: 92%   Direction: 310°NW
Pressure: 30.09"   Gusts: NA
Location:  46.21°N, 119.11°W
Report Text: KPSC 301153Z AUTO 31007KT 10SM -RA OVC090 11/09 A3009 RMK AO2 RAB51 SLP187 P0000 60000 T01060094 10111 20100 55006
Loading
Personal Weather Stations






























Interactive Weather Map
Tropical Storm Tracking
New forecast layout! Learn more

10-Day Weather Forecast

Advertisements
Track Severe Weather on mobile